createdAt,value
2023-11-29T00:01:00.716Z,96067.97
2023-11-29T00:03:28.274Z,96070.03
2023-11-29T00:05:55.978Z,96069.78
2023-11-29T00:08:23.637Z,96066.94
2023-11-29T00:10:51.211Z,96067.19
2023-11-29T00:13:21.372Z,96061.97
2023-11-29T00:15:49.518Z,96072.13
2023-11-29T00:18:19.314Z,96073.97
2023-11-29T00:20:46.941Z,96076.59
2023-11-29T00:23:14.582Z,96070.56
2023-11-29T00:25:42.203Z,96076.06
2023-11-29T00:28:10.094Z,96075.28
2023-11-29T00:30:37.700Z,96077.38
2023-11-29T00:33:05.390Z,96079.72
2023-11-29T00:35:34.405Z,96086.50
2023-11-29T00:38:02.117Z,96078.94
2023-11-29T00:40:29.642Z,96080.78
2023-11-29T00:43:04.017Z,96087.84
2023-11-29T00:45:35.943Z,96088.06
2023-11-29T00:48:03.667Z,96081.28
2023-11-29T00:50:31.321Z,96078.69
2023-11-29T00:53:00.221Z,96078.94
2023-11-29T00:55:34.929Z,96077.13
2023-11-29T00:58:03.809Z,96084.41
2023-11-29T01:00:31.460Z,96078.16
2023-11-29T01:02:59.902Z,96076.88
2023-11-29T01:05:27.821Z,96080.00
2023-11-29T01:07:57.177Z,96079.44
2023-11-29T01:10:26.242Z,96082.84
2023-11-29T01:12:54.064Z,96087.03
2023-11-29T01:15:21.843Z,96094.59
2023-11-29T01:17:49.691Z,96081.53
2023-11-29T01:20:17.516Z,96097.44
2023-11-29T01:22:45.725Z,96098.22
2023-11-29T01:25:13.566Z,96089.31
2023-11-29T01:27:43.046Z,96083.84
2023-11-29T01:30:11.064Z,96084.84
2023-11-29T01:32:38.810Z,96089.56
2023-11-29T01:35:07.447Z,96092.16
2023-11-29T01:37:36.025Z,96093.22
2023-11-29T01:40:04.091Z,96094.81
2023-11-29T01:42:31.953Z,96099.25
2023-11-29T01:45:00.878Z,96096.88
2023-11-29T01:47:30.495Z,96101.81
2023-11-29T01:49:58.422Z,96095.06
2023-11-29T01:52:26.191Z,96102.91
2023-11-29T01:54:53.776Z,96102.38
2023-11-29T01:57:21.430Z,96102.91
2023-11-29T01:59:49.018Z,96102.09
2023-11-29T02:02:18.342Z,96100.53
2023-11-29T02:04:46.561Z,96106.03
2023-11-29T02:07:14.837Z,96108.13
2023-11-29T02:09:42.602Z,96106.81
2023-11-29T02:12:10.437Z,96111.00
2023-11-29T02:14:41.552Z,96104.50
2023-11-29T02:17:09.572Z,96101.09
2023-11-29T02:19:39.259Z,96090.63
2023-11-29T02:22:07.235Z,96099.78
2023-11-29T02:24:41.592Z,96093.25
2023-11-29T02:27:10.806Z,96096.88
2023-11-29T02:29:40.139Z,96096.38
2023-11-29T02:32:08.638Z,96094.81
2023-11-29T02:34:37.238Z,96087.50
2023-11-29T02:37:05.019Z,96080.69
2023-11-29T02:39:32.626Z,96082.53
2023-11-29T02:42:00.222Z,96078.63
2023-11-29T02:44:30.262Z,96081.75
2023-11-29T02:46:57.958Z,96085.38
2023-11-29T02:49:25.691Z,96078.38
2023-11-29T02:51:53.829Z,96065.56
2023-11-29T02:54:21.384Z,96065.59
2023-11-29T02:56:49.241Z,96064.00
2023-11-29T02:59:16.910Z,96055.91
2023-11-29T03:01:45.897Z,96061.94
2023-11-29T03:04:13.511Z,96058.81
2023-11-29T03:06:41.162Z,96057.50
2023-11-29T03:09:09.068Z,96061.66
2023-11-29T03:11:36.678Z,96054.38
2023-11-29T03:14:04.380Z,96056.97
2023-11-29T03:16:32.038Z,96055.16
2023-11-29T03:19:01.038Z,96053.56
2023-11-29T03:21:29.890Z,96063.47
2023-11-29T03:23:57.489Z,96062.69
2023-11-29T03:26:25.095Z,96068.16
2023-11-29T03:28:52.697Z,96071.28
2023-11-29T03:31:20.374Z,96065.00
2023-11-29T03:33:48.024Z,96062.91
2023-11-29T03:36:16.951Z,96067.09
2023-11-29T03:38:44.566Z,96067.88
2023-11-29T03:41:12.243Z,96062.91
2023-11-29T03:43:39.821Z,96068.06
2023-11-29T03:46:08.039Z,96064.16
2023-11-29T03:48:35.710Z,96065.44
2023-11-29T03:51:03.288Z,96067.50
2023-11-29T03:53:32.299Z,96071.13
2023-11-29T03:55:59.930Z,96061.22
2023-11-29T03:58:27.498Z,96059.94
2023-11-29T04:00:55.126Z,96058.63
2023-11-29T04:03:22.734Z,96060.22
2023-11-29T04:05:50.359Z,96054.13
2023-11-29T04:08:18.866Z,96062.16
2023-11-29T04:10:48.031Z,96054.59
2023-11-29T04:13:15.640Z,96058.50
2023-11-29T04:15:43.247Z,96049.66
2023-11-29T04:18:10.832Z,96059.50
2023-11-29T04:20:38.496Z,96061.34
2023-11-29T04:23:06.079Z,96061.41
2023-11-29T04:25:33.670Z,96064.31
2023-11-29T04:28:04.167Z,96065.59
2023-11-29T04:30:31.933Z,96065.59
2023-11-29T04:32:59.737Z,96067.13
2023-11-29T04:35:27.398Z,96067.97
2023-11-29T04:37:54.958Z,96074.75
2023-11-29T04:40:22.488Z,96069.06
2023-11-29T04:42:50.060Z,96062.69
2023-11-29T04:45:19.050Z,96069.41
2023-11-29T04:47:46.801Z,96060.44
2023-11-29T04:50:14.608Z,96060.31
2023-11-29T04:52:42.188Z,96054.16
2023-11-29T04:55:10.810Z,96054.38
2023-11-29T04:57:38.391Z,96067.41
2023-11-29T05:00:07.697Z,96067.88
2023-11-29T05:02:36.688Z,96069.75
2023-11-29T05:05:08.219Z,96057.34
2023-11-29T05:07:35.774Z,96059.53
2023-11-29T05:10:03.397Z,96061.38
2023-11-29T05:12:31.043Z,96065.22
2023-11-29T05:14:58.641Z,96067.38
2023-11-29T05:17:26.309Z,96052.44
2023-11-29T05:19:55.305Z,96065.72
2023-11-29T05:22:22.853Z,96069.22
2023-11-29T05:24:50.452Z,96059.44
2023-11-29T05:27:18.112Z,96061.25
2023-11-29T05:29:45.679Z,96061.91
2023-11-29T05:32:13.655Z,96055.81
2023-11-29T05:34:41.628Z,96052.84
2023-11-29T05:37:11.310Z,96058.97
2023-11-29T05:39:37.920Z,96058.72
2023-11-29T05:42:07.428Z,96054.59
2023-11-29T05:44:35.425Z,96056.69
2023-11-29T05:47:03.525Z,96055.66
2023-11-29T05:49:31.238Z,96048.34
2023-11-29T05:51:59.000Z,96047.84
2023-11-29T05:54:28.165Z,96057.25
2023-11-29T05:56:56.111Z,96056.75
2023-11-29T05:59:23.830Z,96061.69
2023-11-29T06:01:52.684Z,96065.09
2023-11-29T06:04:20.333Z,96067.19
2023-11-29T06:06:47.934Z,96076.31
2023-11-29T06:09:15.968Z,96080.00
2023-11-29T06:11:44.914Z,96080.78
2023-11-29T06:14:12.731Z,96081.56
2023-11-29T06:16:40.296Z,96083.13
2023-11-29T06:19:08.039Z,96075.28
2023-11-29T06:21:35.666Z,96076.56
2023-11-29T06:24:03.286Z,96076.84
2023-11-29T06:26:33.546Z,96079.44
2023-11-29T06:29:02.546Z,96078.69
2023-11-29T06:31:30.444Z,96086.50
2023-11-29T06:33:58.051Z,96084.41
2023-11-29T06:36:27.349Z,96082.09
2023-11-29T06:38:56.521Z,96088.59
2023-11-29T06:41:24.122Z,96092.53
2023-11-29T06:43:53.291Z,96091.19
2023-11-29T06:46:23.115Z,96092.00
2023-11-29T06:48:51.544Z,96096.44
2023-11-29T06:51:19.196Z,96095.91
2023-11-29T06:53:47.103Z,96104.25
2023-11-29T06:56:14.709Z,96102.19
2023-11-29T06:58:42.320Z,96105.31
2023-11-29T07:01:10.313Z,96096.94
2023-11-29T07:03:39.229Z,96101.94
2023-11-29T07:06:07.569Z,96097.75
2023-11-29T07:08:35.243Z,96099.56
2023-11-29T07:11:05.701Z,96101.66
2023-11-29T07:13:33.353Z,96098.25
2023-11-29T07:16:01.014Z,96103.50
2023-11-29T07:18:28.711Z,96096.69
2023-11-29T07:20:58.655Z,96105.59
2023-11-29T07:23:26.333Z,96103.50
2023-11-29T07:25:55.587Z,96104.28
2023-11-29T07:28:23.201Z,96104.81
2023-11-29T07:30:51.886Z,96098.03
2023-11-29T07:33:19.625Z,96108.47
2023-11-29T07:35:47.308Z,96108.19
2023-11-29T07:38:16.346Z,96104.53
2023-11-29T07:40:44.103Z,96103.25
2023-11-29T07:43:13.178Z,96101.16
2023-11-29T07:45:43.036Z,96096.97
2023-11-29T07:48:10.863Z,96103.25
2023-11-29T07:50:38.517Z,96103.78
2023-11-29T07:53:06.188Z,96106.63
2023-11-29T07:55:36.238Z,96108.72
2023-11-29T07:58:04.870Z,96114.72
2023-11-29T08:00:32.723Z,96117.09
2023-11-29T08:03:00.396Z,96119.97
2023-11-29T08:05:29.242Z,96119.97
2023-11-29T08:07:56.996Z,96117.59
2023-11-29T08:10:24.930Z,96116.03
2023-11-29T08:12:53.852Z,96116.56
2023-11-29T08:15:21.439Z,96122.31
2023-11-29T08:17:49.174Z,96118.41
2023-11-29T08:20:17.078Z,96117.34
2023-11-29T08:22:45.908Z,96110.00
2023-11-29T08:25:14.032Z,96109.75
2023-11-29T08:27:41.619Z,96118.91
2023-11-29T08:30:12.397Z,96113.97
2023-11-29T08:32:41.479Z,96119.69
2023-11-29T08:35:11.088Z,96120.22
2023-11-29T08:37:38.670Z,96119.41
2023-11-29T08:40:08.043Z,96122.50
2023-11-29T08:42:35.879Z,96123.56
2023-11-29T08:45:03.990Z,96124.03
2023-11-29T08:47:33.259Z,96123.72
2023-11-29T08:50:00.913Z,96129.72
2023-11-29T08:52:28.495Z,96127.56
2023-11-29T08:54:56.051Z,96121.25
2023-11-29T08:57:24.718Z,96128.56
2023-11-29T08:59:52.604Z,96128.13
2023-11-29T09:02:21.148Z,96126.47
2023-11-29T09:04:50.314Z,96132.00
2023-11-29T09:07:18.945Z,96124.09
2023-11-29T09:09:48.572Z,96126.63
2023-11-29T09:12:17.174Z,96137.38
2023-11-29T09:14:45.436Z,96122.75
2023-11-29T09:17:17.276Z,96117.28
2023-11-29T09:19:45.584Z,96113.50
2023-11-29T09:22:14.586Z,96117.22
2023-11-29T09:24:42.169Z,96116.72
2023-11-29T09:27:09.730Z,96110.13
2023-11-29T09:29:37.468Z,96109.06
2023-11-29T09:32:05.894Z,96099.84
2023-11-29T09:34:33.533Z,96106.53
2023-11-29T09:37:01.714Z,96099.44
2023-11-29T09:39:31.571Z,96105.47
2023-11-29T09:41:59.370Z,96110.09
2023-11-29T09:44:27.486Z,96105.88
2023-11-29T09:46:55.746Z,96103.41
2023-11-29T09:49:24.452Z,96103.47
2023-11-29T09:51:52.426Z,96107.84
2023-11-29T09:54:20.163Z,96098.91
2023-11-29T09:56:49.263Z,96106.66
2023-11-29T09:59:17.409Z,96098.56
2023-11-29T10:01:46.941Z,96103.19
2023-11-29T10:04:15.641Z,96103.94
2023-11-29T10:06:43.421Z,96101.56
2023-11-29T10:09:13.422Z,96102.09
2023-11-29T10:11:42.052Z,96106.06
2023-11-29T10:14:12.145Z,96094.00
2023-11-29T10:16:39.887Z,96100.25
2023-11-29T10:19:10.878Z,96086.91
2023-11-29T10:21:41.758Z,96089.19
2023-11-29T10:24:09.453Z,96075.72
2023-11-29T10:26:37.218Z,96071.63
2023-11-29T10:29:04.869Z,96077.81
2023-11-29T10:31:36.064Z,96079.28
2023-11-29T10:34:05.094Z,96073.78
2023-11-29T10:36:34.653Z,96075.06
2023-11-29T10:39:07.383Z,96078.91
2023-11-29T10:41:40.347Z,96074.59
2023-11-29T10:44:09.864Z,96061.66
2023-11-29T10:46:41.960Z,96064.78
2023-11-29T10:49:17.967Z,96052.44
2023-11-29T10:51:46.693Z,96051.50
2023-11-29T10:54:38.673Z,96052.59
2023-11-29T10:57:05.167Z,96056.66
2023-11-29T10:59:35.880Z,96051.50
2023-11-29T11:02:05.195Z,96051.72
2023-11-29T11:04:33.638Z,96034.00
2023-11-29T11:07:03.966Z,96035.66
2023-11-29T11:09:40.633Z,96026.13
2023-11-29T11:12:09.307Z,96033.72
2023-11-29T11:14:58.942Z,96020.53
2023-11-29T11:17:28.512Z,96018.28
2023-11-29T11:19:56.295Z,96012.03
2023-11-29T11:22:33.467Z,95997.06
2023-11-29T11:25:06.104Z,95999.66
2023-11-29T11:27:38.200Z,96006.56
2023-11-29T11:30:27.609Z,95993.50
2023-11-29T11:32:58.477Z,95997.97
2023-11-29T11:35:36.988Z,95985.78
2023-11-29T11:38:09.909Z,95988.50
2023-11-29T11:40:40.189Z,95978.66
2023-11-29T11:43:08.901Z,95976.25
2023-11-29T11:45:38.058Z,95974.00
2023-11-29T11:48:09.351Z,95968.59
2023-11-29T11:50:37.551Z,95969.91
2023-11-29T11:53:07.122Z,95959.09
2023-11-29T11:55:36.650Z,95960.34
2023-11-29T11:58:05.531Z,95958.72
2023-11-29T12:00:33.383Z,95956.28
2023-11-29T12:03:02.303Z,95953.09
2023-11-29T12:05:31.747Z,95956.22
2023-11-29T12:08:00.662Z,95955.44
2023-11-29T12:10:28.331Z,95946.84
2023-11-29T12:12:56.730Z,95943.63
2023-11-29T12:15:24.810Z,95945.84
2023-11-29T12:17:52.670Z,95947.28
2023-11-29T12:20:20.537Z,95946.00
2023-11-29T12:22:49.572Z,95948.25
2023-11-29T12:25:20.834Z,95937.56
2023-11-29T12:27:51.302Z,95938.72
2023-11-29T12:30:20.352Z,95927.66
2023-11-29T12:32:48.198Z,95926.16
2023-11-29T12:35:17.357Z,95924.50
2023-11-29T12:37:47.141Z,95923.88
2023-11-29T12:40:20.289Z,95918.66
2023-11-29T12:42:49.941Z,95914.53
2023-11-29T12:45:18.068Z,95917.31
2023-11-29T12:47:45.792Z,95913.50
2023-11-29T12:50:13.947Z,95904.41
2023-11-29T12:52:42.092Z,95906.78
2023-11-29T12:55:10.343Z,95895.22
2023-11-29T12:57:39.942Z,95905.41
2023-11-29T13:00:10.080Z,95896.47
2023-11-29T13:02:37.863Z,95901.84
2023-11-29T13:05:06.235Z,95889.47
2023-11-29T13:07:34.125Z,95886.16
2023-11-29T13:10:01.716Z,95887.38
2023-11-29T13:12:29.594Z,95884.34
2023-11-29T13:14:59.204Z,95889.75
2023-11-29T13:17:26.867Z,95876.16
2023-11-29T13:19:54.458Z,95872.84
2023-11-29T13:22:22.100Z,95861.88
2023-11-29T13:24:49.724Z,95861.16
2023-11-29T13:27:17.541Z,95855.00
2023-11-29T13:29:45.208Z,95855.22
2023-11-29T13:32:14.575Z,95853.34
2023-11-29T13:34:42.812Z,95852.34
2023-11-29T13:37:10.636Z,95848.38
2023-11-29T13:39:38.248Z,95843.44
2023-11-29T13:42:06.624Z,95838.72
2023-11-29T13:44:34.434Z,95837.63
2023-11-29T13:47:02.064Z,95838.09
2023-11-29T13:49:31.075Z,95839.47
2023-11-29T13:52:07.735Z,95835.34
2023-11-29T13:54:41.018Z,95832.88
2023-11-29T13:57:08.891Z,95830.56
2023-11-29T13:59:37.452Z,95824.16
2023-11-29T14:02:14.070Z,95826.66
2023-11-29T14:04:46.817Z,95817.84
2023-11-29T14:07:14.698Z,95811.41
2023-11-29T14:09:42.744Z,95811.56
2023-11-29T14:12:11.154Z,95814.69
2023-11-29T14:14:38.989Z,95811.44
2023-11-29T14:17:07.753Z,95814.00
2023-11-29T14:19:35.497Z,95811.50
2023-11-29T14:22:04.708Z,95807.13
2023-11-29T14:24:32.281Z,95810.31
2023-11-29T14:26:59.916Z,95804.91
2023-11-29T14:29:27.692Z,95818.63
2023-11-29T14:31:55.469Z,95814.31
2023-11-29T14:34:23.117Z,95816.78
2023-11-29T14:36:54.531Z,95805.63
2023-11-29T14:39:25.830Z,95806.97
2023-11-29T14:41:53.754Z,95798.75
2023-11-29T14:44:21.386Z,95799.97
2023-11-29T14:46:49.128Z,95805.31
2023-11-29T14:49:23.754Z,95804.59
2023-11-29T14:51:56.577Z,95799.88
2023-11-29T14:54:25.553Z,95798.50
2023-11-29T14:56:53.199Z,95807.22
2023-11-29T14:59:20.771Z,95805.78
2023-11-29T15:01:48.656Z,95804.84
2023-11-29T15:04:16.362Z,95800.41
2023-11-29T15:06:44.440Z,95799.59
2023-11-29T15:09:12.059Z,95793.88
2023-11-29T15:11:41.037Z,95787.25
2023-11-29T15:14:08.694Z,95794.84
2023-11-29T15:16:36.374Z,95788.03
2023-11-29T15:19:04.364Z,95782.19
2023-11-29T15:21:32.146Z,95792.47
2023-11-29T15:24:00.394Z,95790.88
2023-11-29T15:26:28.068Z,95800.59
2023-11-29T15:28:57.172Z,95799.38
2023-11-29T15:31:24.781Z,95804.56
2023-11-29T15:33:52.614Z,95799.78
2023-11-29T15:36:20.592Z,95796.94
2023-11-29T15:38:50.134Z,95792.75
2023-11-29T15:41:17.759Z,95792.69
2023-11-29T15:43:45.407Z,95796.66
2023-11-29T15:46:14.369Z,95797.84
2023-11-29T15:48:42.169Z,95791.09
2023-11-29T15:51:10.449Z,95795.41
2023-11-29T15:53:38.121Z,95791.97
2023-11-29T15:56:06.669Z,95799.38
2023-11-29T15:58:34.288Z,95794.31
2023-11-29T16:01:01.866Z,95797.19
2023-11-29T16:03:30.789Z,95791.88
2023-11-29T16:05:59.513Z,95793.50
2023-11-29T16:08:27.348Z,95788.38
2023-11-29T16:10:54.940Z,95787.34
2023-11-29T16:13:22.555Z,95791.97
2023-11-29T16:15:50.118Z,95791.84
2023-11-29T16:18:17.829Z,95794.78
2023-11-29T16:20:48.167Z,95792.00
2023-11-29T16:23:15.855Z,95783.47
2023-11-29T16:25:43.953Z,95783.81
2023-11-29T16:28:11.826Z,95785.75
2023-11-29T16:30:39.695Z,95777.03
2023-11-29T16:33:07.971Z,95783.44
2023-11-29T16:35:35.828Z,95783.03
2023-11-29T16:38:05.291Z,95779.91
2023-11-29T16:40:32.957Z,95776.09
2023-11-29T16:43:00.695Z,95772.66
2023-11-29T16:45:28.298Z,95768.81
2023-11-29T16:47:55.991Z,95778.72
2023-11-29T16:50:23.625Z,95777.25
2023-11-29T16:52:52.322Z,95776.78
2023-11-29T16:55:21.364Z,95779.16
2023-11-29T16:57:48.972Z,95772.66
2023-11-29T17:00:18.264Z,95768.44
2023-11-29T17:02:45.954Z,95765.94
2023-11-29T17:05:17.119Z,95765.59
2023-11-29T17:07:44.857Z,95765.47
2023-11-29T17:10:12.786Z,95769.19
2023-11-29T17:12:41.693Z,95774.66
2023-11-29T17:15:10.362Z,95776.94
2023-11-29T17:17:39.023Z,95766.91
2023-11-29T17:20:07.893Z,95765.94
2023-11-29T17:22:35.463Z,95771.38
2023-11-29T17:25:03.148Z,95760.34
2023-11-29T17:27:31.121Z,95761.31
2023-11-29T17:30:00.293Z,95757.25
2023-11-29T17:32:28.071Z,95764.84
2023-11-29T17:34:56.079Z,95763.19
2023-11-29T17:37:23.676Z,95773.66
2023-11-29T17:39:51.231Z,95781.22
2023-11-29T17:42:19.292Z,95777.28
2023-11-29T17:44:47.542Z,95772.94
2023-11-29T17:47:18.012Z,95785.22
2023-11-29T17:49:46.169Z,95781.38
2023-11-29T17:52:16.272Z,95780.97
2023-11-29T17:54:44.174Z,95781.69
2023-11-29T17:57:11.878Z,95774.88
2023-11-29T17:59:39.482Z,95778.00
2023-11-29T18:02:08.159Z,95769.72
2023-11-29T18:04:37.195Z,95774.78
2023-11-29T18:07:05.291Z,95773.88
2023-11-29T18:09:33.064Z,95767.41
2023-11-29T18:12:00.713Z,95778.56
2023-11-29T18:14:28.271Z,95776.25
2023-11-29T18:16:55.841Z,95783.38
2023-11-29T18:19:23.474Z,95784.44
2023-11-29T18:21:52.457Z,95778.38
2023-11-29T18:24:20.375Z,95776.06
2023-11-29T18:26:49.026Z,95765.69
2023-11-29T18:29:16.793Z,95778.28
2023-11-29T18:31:44.373Z,95782.25
2023-11-29T18:34:12.182Z,95776.69
2023-11-29T18:36:39.723Z,95781.31
2023-11-29T18:39:08.780Z,95773.78
2023-11-29T18:41:36.488Z,95767.78
2023-11-29T18:44:04.189Z,95773.97
2023-11-29T18:46:32.186Z,95770.38
2023-11-29T18:49:00.023Z,95772.06
2023-11-29T18:51:27.731Z,95762.22
2023-11-29T18:53:55.946Z,95770.41
2023-11-29T18:56:24.905Z,95775.25
2023-11-29T18:58:54.770Z,95773.06
2023-11-29T19:01:22.393Z,95769.88
2023-11-29T19:03:50.223Z,95776.03
2023-11-29T19:06:17.927Z,95763.19
2023-11-29T19:08:45.598Z,95760.63
2023-11-29T19:11:13.952Z,95763.78
2023-11-29T19:13:42.887Z,95759.34
2023-11-29T19:16:15.418Z,95762.81
2023-11-29T19:18:43.289Z,95754.66
2023-11-29T19:21:12.122Z,95759.91
2023-11-29T19:23:45.717Z,95756.47
2023-11-29T19:26:14.071Z,95756.53
2023-11-29T19:28:44.402Z,95756.31
2023-11-29T19:31:12.024Z,95761.00
2023-11-29T19:33:39.674Z,95754.38
2023-11-29T19:36:08.308Z,95758.94
2023-11-29T19:38:35.938Z,95742.31
2023-11-29T19:41:03.521Z,95757.13
2023-11-29T19:43:31.088Z,95753.91
2023-11-29T19:45:59.970Z,95754.66
2023-11-29T19:48:27.679Z,95759.91
2023-11-29T19:50:56.278Z,95749.44
2023-11-29T19:53:23.862Z,95754.66
2023-11-29T19:55:51.442Z,95740.44
2023-11-29T19:58:23.923Z,95746.78
2023-11-29T20:00:57.918Z,95744.91
2023-11-29T20:03:27.094Z,95737.25
2023-11-29T20:05:54.815Z,95735.81
2023-11-29T20:08:22.404Z,95733.06
2023-11-29T20:10:55.421Z,95727.06
2023-11-29T20:13:24.275Z,95721.91
2023-11-29T20:15:52.009Z,95727.91
2023-11-29T20:18:22.110Z,95723.44
2023-11-29T20:21:01.258Z,95709.50
2023-11-29T20:23:31.978Z,95707.06
2023-11-29T20:25:59.644Z,95699.72
2023-11-29T20:28:27.239Z,95698.41
2023-11-29T20:30:55.232Z,95699.75
2023-11-29T20:33:23.323Z,95707.06
2023-11-29T20:35:52.850Z,95704.88
2023-11-29T20:38:20.514Z,95701.75
2023-11-29T20:40:48.569Z,95698.38
2023-11-29T20:43:16.613Z,95689.19
2023-11-29T20:45:44.308Z,95686.75
2023-11-29T20:48:12.188Z,95687.31
2023-11-29T20:50:40.748Z,95686.53
2023-11-29T20:53:17.882Z,95681.94
2023-11-29T20:55:49.231Z,95680.75
2023-11-29T20:58:18.966Z,95674.50
2023-11-29T21:00:46.747Z,95663.31
2023-11-29T21:03:14.989Z,95667.13
2023-11-29T21:05:43.051Z,95664.59
2023-11-29T21:08:12.044Z,95659.78
2023-11-29T21:10:39.606Z,95662.13
2023-11-29T21:13:08.640Z,95664.53
2023-11-29T21:15:37.394Z,95668.56
2023-11-29T21:18:05.477Z,95663.09
2023-11-29T21:20:34.666Z,95649.44
2023-11-29T21:23:02.273Z,95641.78
2023-11-29T21:25:31.934Z,95642.88
2023-11-29T21:27:59.878Z,95642.63
2023-11-29T21:30:27.572Z,95642.69
2023-11-29T21:32:55.360Z,95639.47
2023-11-29T21:35:23.009Z,95637.78
2023-11-29T21:37:50.780Z,95639.59
2023-11-29T21:40:18.523Z,95646.34
2023-11-29T21:42:47.448Z,95644.31
2023-11-29T21:45:15.146Z,95641.19
2023-11-29T21:47:42.952Z,95643.19
2023-11-29T21:50:11.121Z,95644.13
2023-11-29T21:52:38.942Z,95647.81
2023-11-29T21:55:07.140Z,95645.09
2023-11-29T21:57:34.841Z,95653.34
2023-11-29T22:00:04.922Z,95645.91
2023-11-29T22:02:34.292Z,95646.63
2023-11-29T22:05:02.502Z,95644.97
2023-11-29T22:07:30.087Z,95653.59
2023-11-29T22:09:57.654Z,95654.31
2023-11-29T22:12:25.392Z,95645.81
2023-11-29T22:14:53.002Z,95649.81
2023-11-29T22:17:22.008Z,95648.94
2023-11-29T22:19:49.670Z,95632.44
2023-11-29T22:22:17.331Z,95633.63
2023-11-29T22:24:44.909Z,95633.53
2023-11-29T22:27:12.617Z,95636.00
2023-11-29T22:29:40.383Z,95644.16
2023-11-29T22:32:08.529Z,95638.94
2023-11-29T22:34:37.596Z,95634.97
2023-11-29T22:37:05.490Z,95635.19
2023-11-29T22:39:33.119Z,95632.38
2023-11-29T22:42:00.783Z,95634.78
2023-11-29T22:44:28.446Z,95620.28
2023-11-29T22:46:56.081Z,95617.84
2023-11-29T22:49:23.667Z,95613.06
2023-11-29T22:51:52.816Z,95614.00
2023-11-29T22:54:20.605Z,95613.00
2023-11-29T22:56:48.352Z,95619.00
2023-11-29T22:59:15.894Z,95624.28
2023-11-29T23:01:43.760Z,95630.34
2023-11-29T23:04:11.793Z,95623.59
2023-11-29T23:06:39.615Z,95615.88
2023-11-29T23:09:09.448Z,95611.13
2023-11-29T23:11:37.097Z,95609.56
2023-11-29T23:14:04.655Z,95623.97
2023-11-29T23:16:33.152Z,95625.56
2023-11-29T23:19:00.816Z,95632.00
2023-11-29T23:21:28.508Z,95623.66
2023-11-29T23:23:56.120Z,95625.75
2023-11-29T23:26:25.014Z,95624.66
2023-11-29T23:28:52.669Z,95616.78
2023-11-29T23:31:20.284Z,95613.63
2023-11-29T23:33:47.930Z,95614.31
2023-11-29T23:36:15.638Z,95611.47
2023-11-29T23:38:43.322Z,95618.50
2023-11-29T23:41:10.889Z,95611.19
2023-11-29T23:43:39.774Z,95619.25
2023-11-29T23:46:08.258Z,95617.66
2023-11-29T23:48:35.869Z,95633.03
2023-11-29T23:51:03.525Z,95626.03
2023-11-29T23:53:31.113Z,95616.53
2023-11-29T23:55:58.812Z,95614.53
2023-11-29T23:58:26.408Z,95610.97
